sensor_id;sensor_type;location;lat;lon;timestamp;pressure;altitude;pressure_sealevel;temperature
73894;BMP280;62699;50.534;12.784;2023-01-15T00:01:29;94991.06;;;6.97
73894;BMP280;62699;50.534;12.784;2023-01-15T00:06:33;94987.38;;;7.06
73894;BMP280;62699;50.534;12.784;2023-01-15T00:11:34;95001.16;;;7.16
73894;BMP280;62699;50.534;12.784;2023-01-15T00:16:36;94980.41;;;7.22
73894;BMP280;62699;50.534;12.784;2023-01-15T00:21:39;94969.00;;;7.21
73894;BMP280;62699;50.534;12.784;2023-01-15T00:26:40;94978.69;;;7.24
73894;BMP280;62699;50.534;12.784;2023-01-15T00:32:02;94968.94;;;7.27
73894;BMP280;62699;50.534;12.784;2023-01-15T00:37:03;94930.91;;;7.34
73894;BMP280;62699;50.534;12.784;2023-01-15T00:42:05;94943.28;;;7.37
73894;BMP280;62699;50.534;12.784;2023-01-15T00:47:05;94912.63;;;7.38
73894;BMP280;62699;50.534;12.784;2023-01-15T00:52:09;94940.84;;;7.39
73894;BMP280;62699;50.534;12.784;2023-01-15T00:57:09;94932.56;;;7.37
73894;BMP280;62699;50.534;12.784;2023-01-15T01:02:10;94914.84;;;7.34
73894;BMP280;62699;50.534;12.784;2023-01-15T01:07:11;94931.22;;;7.30
73894;BMP280;62699;50.534;12.784;2023-01-15T01:12:11;94918.81;;;7.27
73894;BMP280;62699;50.534;12.784;2023-01-15T01:17:11;94915.31;;;7.32
73894;BMP280;62699;50.534;12.784;2023-01-15T01:22:11;94906.53;;;7.37
73894;BMP280;62699;50.534;12.784;2023-01-15T01:27:12;94912.34;;;7.41
73894;BMP280;62699;50.534;12.784;2023-01-15T01:32:12;94902.78;;;7.46
73894;BMP280;62699;50.534;12.784;2023-01-15T01:37:12;94899.47;;;7.40
73894;BMP280;62699;50.534;12.784;2023-01-15T01:42:16;94878.09;;;7.34
73894;BMP280;62699;50.534;12.784;2023-01-15T01:47:19;94891.94;;;7.38
73894;BMP280;62699;50.534;12.784;2023-01-15T01:52:31;94886.34;;;7.36
73894;BMP280;62699;50.534;12.784;2023-01-15T01:57:35;94882.22;;;7.35
73894;BMP280;62699;50.534;12.784;2023-01-15T02:02:42;94882.69;;;7.39
73894;BMP280;62699;50.534;12.784;2023-01-15T02:07:43;94847.28;;;7.46
73894;BMP280;62699;50.534;12.784;2023-01-15T02:12:48;94876.31;;;7.42
73894;BMP280;62699;50.534;12.784;2023-01-15T02:17:56;94869.16;;;7.50
73894;BMP280;62699;50.534;12.784;2023-01-15T02:28:15;94831.81;;;7.58
73894;BMP280;62699;50.534;12.784;2023-01-15T02:33:21;94817.94;;;7.60
73894;BMP280;62699;50.534;12.784;2023-01-15T02:38:35;94802.72;;;7.49
73894;BMP280;62699;50.534;12.784;2023-01-15T02:43:37;94802.72;;;7.68
73894;BMP280;62699;50.534;12.784;2023-01-15T02:48:40;94794.41;;;7.71
73894;BMP280;62699;50.534;12.784;2023-01-15T02:53:43;94798.22;;;7.76
73894;BMP280;62699;50.534;12.784;2023-01-15T02:58:47;94809.59;;;7.82
73894;BMP280;62699;50.534;12.784;2023-01-15T03:03:55;94803.78;;;7.78
73894;BMP280;62699;50.534;12.784;2023-01-15T03:08:57;94797.06;;;7.90
73894;BMP280;62699;50.534;12.784;2023-01-15T03:14:01;94788.22;;;7.95
73894;BMP280;62699;50.534;12.784;2023-01-15T03:19:26;94760.78;;;7.89
73894;BMP280;62699;50.534;12.784;2023-01-15T03:24:38;94767.81;;;7.92
73894;BMP280;62699;50.534;12.784;2023-01-15T03:29:44;94761.22;;;7.93
73894;BMP280;62699;50.534;12.784;2023-01-15T03:34:50;94753.75;;;7.86
73894;BMP280;62699;50.534;12.784;2023-01-15T03:39:51;94743.16;;;7.93
73894;BMP280;62699;50.534;12.784;2023-01-15T03:45:04;94746.16;;;7.90
73894;BMP280;62699;50.534;12.784;2023-01-15T03:50:34;94736.66;;;7.89
73894;BMP280;62699;50.534;12.784;2023-01-15T03:55:44;94737.47;;;7.84
73894;BMP280;62699;50.534;12.784;2023-01-15T04:00:50;94730.25;;;7.79
73894;BMP280;62699;50.534;12.784;2023-01-15T04:05:54;94727.72;;;7.86
73894;BMP280;62699;50.534;12.784;2023-01-15T04:10:57;94726.59;;;7.95
73894;BMP280;62699;50.534;12.784;2023-01-15T04:15:58;94720.53;;;8.08
73894;BMP280;62699;50.534;12.784;2023-01-15T04:20:58;94716.28;;;7.99
73894;BMP280;62699;50.534;12.784;2023-01-15T04:25:58;94712.59;;;8.02
73894;BMP280;62699;50.534;12.784;2023-01-15T04:30:59;94706.19;;;8.05
73894;BMP280;62699;50.534;12.784;2023-01-15T04:36:00;94697.03;;;8.01
73894;BMP280;62699;50.534;12.784;2023-01-15T04:41:01;94700.22;;;7.99
73894;BMP280;62699;50.534;12.784;2023-01-15T04:46:22;94707.63;;;7.93
73894;BMP280;62699;50.534;12.784;2023-01-15T04:51:22;94700.66;;;8.03
73894;BMP280;62699;50.534;12.784;2023-01-15T04:56:23;94706.81;;;7.98
73894;BMP280;62699;50.534;12.784;2023-01-15T05:01:23;94696.31;;;8.00
73894;BMP280;62699;50.534;12.784;2023-01-15T05:06:27;94702.97;;;7.93
73894;BMP280;62699;50.534;12.784;2023-01-15T05:11:27;94692.16;;;7.86
73894;BMP280;62699;50.534;12.784;2023-01-15T05:16:28;94685.34;;;7.85
73894;BMP280;62699;50.534;12.784;2023-01-15T05:21:32;94686.38;;;7.82
73894;BMP280;62699;50.534;12.784;2023-01-15T05:26:32;94679.56;;;7.81
73894;BMP280;62699;50.534;12.784;2023-01-15T05:31:33;94678.13;;;7.80
73894;BMP280;62699;50.534;12.784;2023-01-15T05:36:33;94680.81;;;7.80
73894;BMP280;62699;50.534;12.784;2023-01-15T05:41:34;94669.50;;;7.87
73894;BMP280;62699;50.534;12.784;2023-01-15T05:46:52;94672.88;;;7.87
73894;BMP280;62699;50.534;12.784;2023-01-15T05:51:54;94666.00;;;7.92
73894;BMP280;62699;50.534;12.784;2023-01-15T05:56:55;94665.97;;;7.79
73894;BMP280;62699;50.534;12.784;2023-01-15T06:01:55;94662.78;;;7.80
73894;BMP280;62699;50.534;12.784;2023-01-15T06:07:10;94679.56;;;7.81
73894;BMP280;62699;50.534;12.784;2023-01-15T06:12:11;94675.66;;;7.82
73894;BMP280;62699;50.534;12.784;2023-01-15T06:17:11;94688.72;;;7.72
73894;BMP280;62699;50.534;12.784;2023-01-15T06:22:11;94687.34;;;7.66
73894;BMP280;62699;50.534;12.784;2023-01-15T06:27:11;94681.06;;;7.63
73894;BMP280;62699;50.534;12.784;2023-01-15T06:32:12;94691.44;;;7.54
73894;BMP280;62699;50.534;12.784;2023-01-15T06:37:12;94696.59;;;7.52
73894;BMP280;62699;50.534;12.784;2023-01-15T06:42:12;94691.03;;;7.49
73894;BMP280;62699;50.534;12.784;2023-01-15T06:47:32;94673.50;;;7.48
73894;BMP280;62699;50.534;12.784;2023-01-15T06:52:32;94722.47;;;7.43
73894;BMP280;62699;50.534;12.784;2023-01-15T06:57:32;94742.75;;;7.39
73894;BMP280;62699;50.534;12.784;2023-01-15T07:02:32;94761.13;;;7.11
73894;BMP280;62699;50.534;12.784;2023-01-15T07:07:33;94765.31;;;6.82
73894;BMP280;62699;50.534;12.784;2023-01-15T07:12:34;94770.13;;;6.64
73894;BMP280;62699;50.534;12.784;2023-01-15T07:17:34;94795.75;;;6.54
73894;BMP280;62699;50.534;12.784;2023-01-15T07:22:34;94805.03;;;6.48
73894;BMP280;62699;50.534;12.784;2023-01-15T07:27:35;94798.28;;;6.41
73894;BMP280;62699;50.534;12.784;2023-01-15T07:32:35;94808.75;;;6.39
73894;BMP280;62699;50.534;12.784;2023-01-15T07:37:35;94819.03;;;6.30
73894;BMP280;62699;50.534;12.784;2023-01-15T07:42:36;94839.47;;;6.21
73894;BMP280;62699;50.534;12.784;2023-01-15T07:47:55;94839.59;;;6.05
73894;BMP280;62699;50.534;12.784;2023-01-15T07:53:14;94843.97;;;6.02
73894;BMP280;62699;50.534;12.784;2023-01-15T07:58:14;94834.78;;;5.98
73894;BMP280;62699;50.534;12.784;2023-01-15T08:03:14;94834.31;;;5.94
73894;BMP280;62699;50.534;12.784;2023-01-15T08:08:16;94840.88;;;5.98
73894;BMP280;62699;50.534;12.784;2023-01-15T08:13:16;94836.28;;;5.88
73894;BMP280;62699;50.534;12.784;2023-01-15T08:18:36;94841.41;;;5.86
73894;BMP280;62699;50.534;12.784;2023-01-15T08:23:36;94820.59;;;5.78
73894;BMP280;62699;50.534;12.784;2023-01-15T08:28:36;94872.97;;;5.81
73894;BMP280;62699;50.534;12.784;2023-01-15T08:33:37;94878.34;;;5.76
73894;BMP280;62699;50.534;12.784;2023-01-15T08:38:37;94838.34;;;5.70
73894;BMP280;62699;50.534;12.784;2023-01-15T08:43:37;94859.22;;;5.66
73894;BMP280;62699;50.534;12.784;2023-01-15T08:48:37;94873.84;;;5.54
73894;BMP280;62699;50.534;12.784;2023-01-15T08:53:38;94875.03;;;5.53
73894;BMP280;62699;50.534;12.784;2023-01-15T08:58:38;94877.47;;;5.51
73894;BMP280;62699;50.534;12.784;2023-01-15T09:03:38;94885.53;;;5.40
73894;BMP280;62699;50.534;12.784;2023-01-15T09:08:39;94887.97;;;5.38
73894;BMP280;62699;50.534;12.784;2023-01-15T09:13:39;94898.94;;;5.07
73894;BMP280;62699;50.534;12.784;2023-01-15T09:18:39;94930.69;;;4.82
73894;BMP280;62699;50.534;12.784;2023-01-15T09:23:40;94924.38;;;4.63
73894;BMP280;62699;50.534;12.784;2023-01-15T09:28:40;94942.06;;;4.55
73894;BMP280;62699;50.534;12.784;2023-01-15T09:33:40;94948.56;;;4.48
73894;BMP280;62699;50.534;12.784;2023-01-15T09:38:41;94956.34;;;4.46
73894;BMP280;62699;50.534;12.784;2023-01-15T09:44:04;94941.78;;;4.42
73894;BMP280;62699;50.534;12.784;2023-01-15T09:49:32;94959.72;;;4.58
73894;BMP280;62699;50.534;12.784;2023-01-15T09:54:50;94972.34;;;4.57
73894;BMP280;62699;50.534;12.784;2023-01-15T09:59:54;94980.59;;;4.54
73894;BMP280;62699;50.534;12.784;2023-01-15T10:05:08;94981.28;;;4.49
73894;BMP280;62699;50.534;12.784;2023-01-15T10:10:16;94983.25;;;4.65
73894;BMP280;62699;50.534;12.784;2023-01-15T10:15:36;94992.72;;;4.72
73894;BMP280;62699;50.534;12.784;2023-01-15T10:26:09;94999.75;;;4.80
73894;BMP280;62699;50.534;12.784;2023-01-15T10:31:18;95007.25;;;4.65
73894;BMP280;62699;50.534;12.784;2023-01-15T10:36:31;95013.28;;;4.54
73894;BMP280;62699;50.534;12.784;2023-01-15T10:46:40;95020.72;;;4.34
73894;BMP280;62699;50.534;12.784;2023-01-15T10:51:49;95032.59;;;4.33
73894;BMP280;62699;50.534;12.784;2023-01-15T10:57:10;95021.66;;;4.31
73894;BMP280;62699;50.534;12.784;2023-01-15T11:07:35;95014.97;;;4.52
73894;BMP280;62699;50.534;12.784;2023-01-15T11:12:38;95020.53;;;4.59
73894;BMP280;62699;50.534;12.784;2023-01-15T11:18:00;95029.56;;;4.73
73894;BMP280;62699;50.534;12.784;2023-01-15T11:23:20;95033.44;;;4.72
73894;BMP280;62699;50.534;12.784;2023-01-15T11:28:53;95035.38;;;4.83
73894;BMP280;62699;50.534;12.784;2023-01-15T11:33:59;95046.03;;;4.77
73894;BMP280;62699;50.534;12.784;2023-01-15T11:39:00;95048.47;;;4.92
73894;BMP280;62699;50.534;12.784;2023-01-15T11:44:00;95046.78;;;4.83
73894;BMP280;62699;50.534;12.784;2023-01-15T11:49:20;95034.59;;;4.60
73894;BMP280;62699;50.534;12.784;2023-01-15T11:54:41;95045.31;;;4.71
73894;BMP280;62699;50.534;12.784;2023-01-15T11:59:47;95042.16;;;4.67
73894;BMP280;62699;50.534;12.784;2023-01-15T12:04:51;95057.47;;;5.00
73894;BMP280;62699;50.534;12.784;2023-01-15T12:10:25;95048.78;;;5.05
73894;BMP280;62699;50.534;12.784;2023-01-15T12:26:29;95049.00;;;5.13
73894;BMP280;62699;50.534;12.784;2023-01-15T12:31:44;95047.06;;;5.30
73894;BMP280;62699;50.534;12.784;2023-01-15T12:36:56;95060.66;;;5.32
73894;BMP280;62699;50.534;12.784;2023-01-15T12:42:01;95054.34;;;5.35
73894;BMP280;62699;50.534;12.784;2023-01-15T12:47:26;95060.16;;;5.17
73894;BMP280;62699;50.534;12.784;2023-01-15T12:52:33;95065.50;;;5.17
73894;BMP280;62699;50.534;12.784;2023-01-15T12:57:42;95044.66;;;5.21
73894;BMP280;62699;50.534;12.784;2023-01-15T13:08:18;95049.19;;;4.92
73894;BMP280;62699;50.534;12.784;2023-01-15T13:13:34;95068.13;;;4.94
73894;BMP280;62699;50.534;12.784;2023-01-15T13:18:44;95074.13;;;4.78
73894;BMP280;62699;50.534;12.784;2023-01-15T13:23:59;95079.47;;;4.78
73894;BMP280;62699;50.534;12.784;2023-01-15T13:29:21;95077.53;;;4.68
73894;BMP280;62699;50.534;12.784;2023-01-15T13:34:34;95086.94;;;4.57
73894;BMP280;62699;50.534;12.784;2023-01-15T13:39:39;95088.63;;;4.55
73894;BMP280;62699;50.534;12.784;2023-01-15T13:44:46;95072.84;;;4.51
73894;BMP280;62699;50.534;12.784;2023-01-15T13:49:51;95074.97;;;4.42
73894;BMP280;62699;50.534;12.784;2023-01-15T13:54:53;95063.78;;;4.27
73894;BMP280;62699;50.534;12.784;2023-01-15T13:59:55;95061.81;;;4.21
73894;BMP280;62699;50.534;12.784;2023-01-15T14:04:55;95070.06;;;4.23
73894;BMP280;62699;50.534;12.784;2023-01-15T14:15:43;95085.78;;;4.21
73894;BMP280;62699;50.534;12.784;2023-01-15T14:26:09;95087.00;;;4.20
73894;BMP280;62699;50.534;12.784;2023-01-15T14:36:44;95092.50;;;4.06
73894;BMP280;62699;50.534;12.784;2023-01-15T14:41:45;95105.97;;;3.97
73894;BMP280;62699;50.534;12.784;2023-01-15T14:47:05;95106.94;;;3.94
73894;BMP280;62699;50.534;12.784;2023-01-15T14:52:19;95116.06;;;3.87
73894;BMP280;62699;50.534;12.784;2023-01-15T14:57:22;95074.63;;;3.75
73894;BMP280;62699;50.534;12.784;2023-01-15T15:02:25;95090.03;;;3.65
73894;BMP280;62699;50.534;12.784;2023-01-15T15:07:35;95116.59;;;3.60
73894;BMP280;62699;50.534;12.784;2023-01-15T15:12:41;95137.88;;;3.60
73894;BMP280;62699;50.534;12.784;2023-01-15T15:18:01;95166.38;;;3.54
73894;BMP280;62699;50.534;12.784;2023-01-15T15:23:27;95189.63;;;3.33
73894;BMP280;62699;50.534;12.784;2023-01-15T15:28:29;95170.16;;;3.21
73894;BMP280;62699;50.534;12.784;2023-01-15T15:33:39;95174.69;;;3.15
73894;BMP280;62699;50.534;12.784;2023-01-15T15:38:51;95175.41;;;3.16
73894;BMP280;62699;50.534;12.784;2023-01-15T15:43:54;95157.28;;;3.14
73894;BMP280;62699;50.534;12.784;2023-01-15T15:49:14;95153.06;;;3.08
73894;BMP280;62699;50.534;12.784;2023-01-15T15:54:19;95172.53;;;2.99
73894;BMP280;62699;50.534;12.784;2023-01-15T15:59:31;95188.69;;;2.95
73894;BMP280;62699;50.534;12.784;2023-01-15T16:04:32;95186.91;;;2.87
73894;BMP280;62699;50.534;12.784;2023-01-15T16:09:32;95203.97;;;2.80
73894;BMP280;62699;50.534;12.784;2023-01-15T16:14:34;95198.84;;;2.77
73894;BMP280;62699;50.534;12.784;2023-01-15T16:19:35;95215.41;;;2.86
73894;BMP280;62699;50.534;12.784;2023-01-15T16:24:35;95209.13;;;2.84
73894;BMP280;62699;50.534;12.784;2023-01-15T16:29:35;95219.88;;;2.95
73894;BMP280;62699;50.534;12.784;2023-01-15T16:34:36;95219.34;;;2.91
73894;BMP280;62699;50.534;12.784;2023-01-15T16:39:43;95247.88;;;2.96
73894;BMP280;62699;50.534;12.784;2023-01-15T16:44:50;95238.88;;;3.08
73894;BMP280;62699;50.534;12.784;2023-01-15T16:49:50;95221.34;;;3.16
73894;BMP280;62699;50.534;12.784;2023-01-15T16:54:51;95229.84;;;3.20
73894;BMP280;62699;50.534;12.784;2023-01-15T17:00:00;95237.97;;;3.11
73894;BMP280;62699;50.534;12.784;2023-01-15T17:05:13;95240.06;;;3.07
73894;BMP280;62699;50.534;12.784;2023-01-15T17:10:23;95266.50;;;2.96
73894;BMP280;62699;50.534;12.784;2023-01-15T17:20:24;95254.31;;;2.69
73894;BMP280;62699;50.534;12.784;2023-01-15T17:25:32;95264.59;;;2.61
73894;BMP280;62699;50.534;12.784;2023-01-15T17:30:33;95261.06;;;2.85
73894;BMP280;62699;50.534;12.784;2023-01-15T17:35:36;95258.66;;;2.87
73894;BMP280;62699;50.534;12.784;2023-01-15T17:40:37;95265.84;;;2.81
73894;BMP280;62699;50.534;12.784;2023-01-15T17:45:38;95255.38;;;2.77
73894;BMP280;62699;50.534;12.784;2023-01-15T17:50:38;95275.66;;;2.75
73894;BMP280;62699;50.534;12.784;2023-01-15T17:55:40;95285.00;;;2.70
73894;BMP280;62699;50.534;12.784;2023-01-15T18:01:00;95280.59;;;2.82
73894;BMP280;62699;50.534;12.784;2023-01-15T18:06:20;95297.06;;;2.86
73894;BMP280;62699;50.534;12.784;2023-01-15T18:11:20;95286.06;;;2.93
73894;BMP280;62699;50.534;12.784;2023-01-15T18:16:22;95291.22;;;2.82
73894;BMP280;62699;50.534;12.784;2023-01-15T18:21:23;95286.81;;;2.79
73894;BMP280;62699;50.534;12.784;2023-01-15T18:26:24;95289.09;;;2.86
73894;BMP280;62699;50.534;12.784;2023-01-15T18:31:24;95287.00;;;2.90
73894;BMP280;62699;50.534;12.784;2023-01-15T18:36:25;95276.31;;;3.04
73894;BMP280;62699;50.534;12.784;2023-01-15T18:41:25;95275.94;;;2.97
73894;BMP280;62699;50.534;12.784;2023-01-15T18:46:54;95281.81;;;3.01
73894;BMP280;62699;50.534;12.784;2023-01-15T18:51:55;95280.75;;;2.93
73894;BMP280;62699;50.534;12.784;2023-01-15T18:57:14;95277.22;;;3.01
73894;BMP280;62699;50.534;12.784;2023-01-15T19:02:19;95263.81;;;3.11
73894;BMP280;62699;50.534;12.784;2023-01-15T19:07:34;95262.53;;;3.06
73894;BMP280;62699;50.534;12.784;2023-01-15T19:12:40;95250.78;;;3.13
73894;BMP280;62699;50.534;12.784;2023-01-15T19:17:40;95236.63;;;3.21
73894;BMP280;62699;50.534;12.784;2023-01-15T19:22:59;95222.84;;;3.23
73894;BMP280;62699;50.534;12.784;2023-01-15T19:28:00;95224.00;;;3.16
73894;BMP280;62699;50.534;12.784;2023-01-15T19:33:00;95212.63;;;3.16
73894;BMP280;62699;50.534;12.784;2023-01-15T19:38:01;95198.34;;;3.13
73894;BMP280;62699;50.534;12.784;2023-01-15T19:43:01;95196.88;;;3.12
73894;BMP280;62699;50.534;12.784;2023-01-15T19:48:20;95190.56;;;3.10
73894;BMP280;62699;50.534;12.784;2023-01-15T19:53:39;95205.78;;;3.09
73894;BMP280;62699;50.534;12.784;2023-01-15T19:58:39;95199.47;;;3.07
73894;BMP280;62699;50.534;12.784;2023-01-15T20:03:40;95198.69;;;3.21
73894;BMP280;62699;50.534;12.784;2023-01-15T20:08:40;95204.72;;;3.21
73894;BMP280;62699;50.534;12.784;2023-01-15T20:13:40;95210.56;;;3.25
73894;BMP280;62699;50.534;12.784;2023-01-15T20:18:52;95213.34;;;3.16
73894;BMP280;62699;50.534;12.784;2023-01-15T20:23:54;95208.78;;;3.17
73894;BMP280;62699;50.534;12.784;2023-01-15T20:28:54;95227.31;;;3.11
73894;BMP280;62699;50.534;12.784;2023-01-15T20:34:06;95238.81;;;3.23
73894;BMP280;62699;50.534;12.784;2023-01-15T20:39:07;95231.22;;;3.36
73894;BMP280;62699;50.534;12.784;2023-01-15T20:44:09;95228.09;;;3.37
73894;BMP280;62699;50.534;12.784;2023-01-15T20:49:28;95237.22;;;3.31
73894;BMP280;62699;50.534;12.784;2023-01-15T20:54:29;95219.97;;;3.26
73894;BMP280;62699;50.534;12.784;2023-01-15T20:59:29;95212.22;;;3.23
73894;BMP280;62699;50.534;12.784;2023-01-15T21:04:40;95205.31;;;3.11
73894;BMP280;62699;50.534;12.784;2023-01-15T21:09:40;95202.97;;;2.98
73894;BMP280;62699;50.534;12.784;2023-01-15T21:14:44;95198.38;;;2.93
73894;BMP280;62699;50.534;12.784;2023-01-15T21:19:44;95195.94;;;2.75
73894;BMP280;62699;50.534;12.784;2023-01-15T21:24:44;95196.00;;;2.80
73894;BMP280;62699;50.534;12.784;2023-01-15T21:29:48;95182.00;;;2.80
73894;BMP280;62699;50.534;12.784;2023-01-15T21:34:48;95174.78;;;2.65
73894;BMP280;62699;50.534;12.784;2023-01-15T21:39:48;95173.47;;;2.55
73894;BMP280;62699;50.534;12.784;2023-01-15T21:44:49;95188.47;;;2.58
73894;BMP280;62699;50.534;12.784;2023-01-15T21:49:49;95192.59;;;2.59
73894;BMP280;62699;50.534;12.784;2023-01-15T21:54:49;95183.03;;;2.67
73894;BMP280;62699;50.534;12.784;2023-01-15T21:59:51;95179.19;;;2.69
73894;BMP280;62699;50.534;12.784;2023-01-15T22:04:51;95184.19;;;2.81
73894;BMP280;62699;50.534;12.784;2023-01-15T22:09:51;95174.69;;;2.75
73894;BMP280;62699;50.534;12.784;2023-01-15T22:14:52;95175.22;;;2.79
73894;BMP280;62699;50.534;12.784;2023-01-15T22:19:53;95173.84;;;2.83
73894;BMP280;62699;50.534;12.784;2023-01-15T22:24:54;95161.00;;;2.82
73894;BMP280;62699;50.534;12.784;2023-01-15T22:29:54;95170.63;;;2.79
73894;BMP280;62699;50.534;12.784;2023-01-15T22:34:54;95160.59;;;2.89
73894;BMP280;62699;50.534;12.784;2023-01-15T22:39:54;95165.00;;;2.92
73894;BMP280;62699;50.534;12.784;2023-01-15T22:44:55;95155.59;;;2.96
73894;BMP280;62699;50.534;12.784;2023-01-15T22:49:58;95160.19;;;2.96
73894;BMP280;62699;50.534;12.784;2023-01-15T22:54:58;95157.16;;;3.03
73894;BMP280;62699;50.534;12.784;2023-01-15T22:59:58;95136.66;;;3.09
73894;BMP280;62699;50.534;12.784;2023-01-15T23:04:58;95126.22;;;3.05
73894;BMP280;62699;50.534;12.784;2023-01-15T23:10:02;95130.69;;;3.14
73894;BMP280;62699;50.534;12.784;2023-01-15T23:15:03;95124.63;;;3.14
73894;BMP280;62699;50.534;12.784;2023-01-15T23:20:08;95125.88;;;3.18
73894;BMP280;62699;50.534;12.784;2023-01-15T23:25:08;95102.09;;;3.09
73894;BMP280;62699;50.534;12.784;2023-01-15T23:30:09;95095.91;;;3.18
73894;BMP280;62699;50.534;12.784;2023-01-15T23:35:09;95097.31;;;3.13
73894;BMP280;62699;50.534;12.784;2023-01-15T23:40:10;95094.13;;;3.09
73894;BMP280;62699;50.534;12.784;2023-01-15T23:45:11;95074.88;;;2.94
73894;BMP280;62699;50.534;12.784;2023-01-15T23:50:30;95079.13;;;2.65
73894;BMP280;62699;50.534;12.784;2023-01-15T23:55:30;95067.44;;;2.52
